Campanya meteocatpedra

Dades EMA Vilanova de Meià

?
?
Resum diari 22:30 TU
Dades diàries de l'estació meteorològica
Temperatura mitjana 22.6 °C
Temperatura màxima 30.2 °C 14:47 TU
Temperatura mínima 14.5 °C 4:32 TU
Humitat relativa mitjana 49%
Precipitació acumulada 0.0 mm
Ratxa màxima del vent (10 m) 27.7 km/h - 194º 14:47 TU
Pressió atmosfèrica mitjana 1018.2 hPa

El tram horari està expressat en Temps Universal (TU). Cal sumar una hora en horari d'hivern i dues en horari d'estiu per passar a l'hora oficial.

Vilanova de Meià

Metadades estació meteorol´gica
Municipi Vilanova de Meià
Comarca Noguera
Altitud 594 m
Data alta 01.04.1996
Estat actual Operativa
Dades de període
Període
TU
TM
°C
TX
°C
TN
°C
HRM
%
PPT
mm
VVM (10 m)
km/h
DVM (10 m)
graus
VVX (10 m)
km/h
PM
hPa
00:00 - 00:30 16.6 16.7 16.5 62 0.0 2.9 26 8.6 1021.2
00:30 - 01:00 16.7 16.9 16.6 61 0.0 3.2 18 10.4 1021.0
01:00 - 01:30 16.5 16.7 16.4 62 0.0 2.5 23 9.0 1021.0
01:30 - 02:00 16.5 16.6 16.3 62 0.0 2.5 23 7.6 1020.9
02:00 - 02:30 16.6 16.8 16.4 62 0.0 2.9 22 7.2 1020.8
02:30 - 03:00 16.7 16.9 16.5 61 0.0 3.2 23 8.6 1020.7
03:00 - 03:30 16.7 16.9 16.4 62 0.0 2.9 25 8.6 1020.7
03:30 - 04:00 16.1 16.4 15.5 65 0.0 2.2 45 8.3 1020.9
04:00 - 04:30 14.8 15.4 14.6 71 0.0 1.1 30 4.0 1021.4
04:30 - 05:00 15.3 15.7 14.5 68 0.0 1.8 20 5.0 1021.4
05:00 - 05:30 15.2 15.5 14.8 70 0.0 1.4 25 5.0 1021.6
05:30 - 06:00 15.0 15.2 14.8 74 0.0 0.7 17 2.5 1021.7
06:00 - 06:30 15.2 15.5 15.1 74 0.0 0.4 25 3.2 1021.6
06:30 - 07:00 16.5 17.9 15.5 70 0.0 0.4 26 2.9 1021.4
07:00 - 07:30 19.1 20.9 17.8 62 0.0 0.7 72 3.2 1020.7
07:30 - 08:00 22.4 23.9 21.0 51 0.0 1.4 101 4.3 1019.7
08:00 - 08:30 24.6 25.2 23.7 45 0.0 4.3 167 10.4 1019.2
08:30 - 09:00 25.6 26.5 24.3 41 0.0 4.7 184 11.5 1018.9
09:00 - 09:30 26.0 26.8 25.4 40 0.0 5.0 168 13.0 1018.6
09:30 - 10:00 27.3 27.9 26.5 39 0.0 5.8 177 15.5 1018.1
10:00 - 10:30 27.5 28.4 26.5 38 0.0 5.8 166 15.5 1017.9
10:30 - 11:00 28.0 28.7 27.3 36 0.0 6.5 168 18.4 1017.5
11:00 - 11:30 28.8 29.2 28.0 36 0.0 7.9 188 16.9 1017.0
11:30 - 12:00 29.0 29.9 28.3 34 0.0 11.2 203 27.0 1016.7
12:00 - 12:30 29.0 29.7 28.4 34 0.0 10.1 188 20.5 1016.5
12:30 - 13:00 29.3 29.9 28.7 34 0.0 10.8 225 23.8 1016.3
13:00 - 13:30 29.3 29.9 28.6 34 0.0 11.2 207 24.1 1016.0
13:30 - 14:00 29.5 29.9 29.0 34 0.0 10.4 198 23.8 1015.7
14:00 - 14:30 29.6 30.0 28.9 33 0.0 10.8 194 22.3 1015.4
14:30 - 15:00 29.7 30.2 29.2 32 0.0 11.5 201 27.7 1015.2
15:00 - 15:30 29.4 30.0 28.9 33 0.0 10.8 192 21.2 1014.9
15:30 - 16:00 29.3 29.8 28.5 33 0.0 10.4 192 20.9 1014.7
16:00 - 16:30 29.4 29.7 28.5 33 0.0 8.6 194 18.4 1014.5
16:30 - 17:00 29.0 29.5 28.2 33 0.0 10.8 192 21.2 1014.4
17:00 - 17:30 28.6 29.0 28.1 34 0.0 8.6 196 19.1 1014.4
17:30 - 18:00 28.1 28.5 27.4 36 0.0 5.8 202 14.0 1014.6
18:00 - 18:30 25.9 27.3 23.6 42 0.0 1.8 192 6.8 1015.2
18:30 - 19:00 22.9 23.4 22.5 49 0.0 0.4 35 4.0 1016.2
19:00 - 19:30 21.6 22.9 21.0 51 0.0 0.7 24 4.7 1016.8
19:30 - 20:00 20.2 21.2 19.4 55 0.0 0.7 30 5.8 1017.3
20:00 - 20:30 19.6 20.6 19.3 55 0.0 2.2 50 12.6 1017.8
20:30 - 21:00 19.3 20.2 18.9 55 0.0 1.1 15 5.0 1018.3
21:00 - 21:30 18.9 19.3 18.5 55 0.0 1.4 22 5.4 1018.5
21:30 - 22:00 18.3 18.6 17.9 56 0.0 1.8 26 8.3 1018.6
22:00 - 22:30 18.1 18.3 18.0 56 0.0 2.9 22 7.6 1018.5
22:30 - 23:00 (s/d) (s/d) (s/d) (s/d) (s/d) (s/d) (s/d) (s/d) (s/d)
23:00 - 23:30 (s/d) (s/d) (s/d) (s/d) (s/d) (s/d) (s/d) (s/d) (s/d)

Les dades en taronja només han passat un control de qualitat automàtic. Resta pendent la seva validació definitiva.